Terminal Aerodrome Forecast
Issued by NWS Memphis, TN

Home | Current Version | Previous Version | Text Only | Print | Product List | Glossary On
Versions: 1 2 3 4 5 6 7 8 9 10 11 12 13 14 15 16 17 18 19 20 21
000
FTUS44 KMEG 042141 AAB
TAFJBR
TAF AMD
KJBR 042141Z 0422/0518 VRB03KT P6SM VCTS BKN025CB BKN150
     FM050000 VRB02KT P6SM SCT030 BKN150
     FM050600 VRB02KT 5SM BR BKN015
      TEMPO 0509/0513 2SM BR OVC007
     FM051600 16004KT P6SM SCT020 BKN035=

USA.gov is the U.S. government's official web portal to all federal, state and local government web resources and services.